Time;durP1;ratioP1;P1;durP2;ratioP2;P2;SDS_P1;SDS_P2;PMS_P1;PMS_P2;Temp;Humidity;BMP_temperature;BMP_pressure;BME280_temperature;BME280_humidity;BME280_pressure;Samples;Min_cycle;Max_cycle;Signal;HPM_P1;HPM_P2
2021/12/30 00:00:41;;;;;;;51.88;11.63;;;;;;;;;;4992234;28;93745;-68
2021/12/30 00:03:08;;;;;;;49.97;10.70;;;;;;;;;;4987081;28;93737;-70
2021/12/30 00:05:35;;;;;;;61.33;12.98;;;;;;;;;;4979992;28;94169;-69
2021/12/30 00:08:01;;;;;;;57.85;12.05;;;;;;;;;;4990410;28;94810;-69
2021/12/30 00:10:28;;;;;;;52.33;12.10;;;;;;;;;;4991168;28;96426;-69
2021/12/30 00:12:54;;;;;;;60.95;13.32;;;;;;;;;;4992382;28;93260;-69
2021/12/30 00:15:21;;;;;;;50.10;11.88;;;;;;;;;;4989966;28;93848;-69
2021/12/30 00:17:47;;;;;;;55.00;12.93;;;;;;;;;;4988967;28;93905;-69
2021/12/30 00:20:14;;;;;;;58.88;14.05;;;;;;;;;;4974956;28;95725;-69
2021/12/30 00:22:41;;;;;;;61.10;13.27;;;;;;;;;;4978040;28;94388;-69
2021/12/30 00:25:09;;;;;;;56.97;14.50;;;;;;;;;;4971707;28;92449;-69
2021/12/30 00:27:35;;;;;;;58.45;16.02;;;;;;;;;;4974462;28;92509;-69
2021/12/30 00:30:03;;;;;;;69.35;15.98;;;;;;;;;;4983227;28;93011;-68
2021/12/30 00:32:29;;;;;;;74.05;18.50;;;;;;;;;;4986824;28;96619;-68
2021/12/30 00:34:55;;;;;;;66.28;14.98;;;;;;;;;;4971688;28;92614;-68
2021/12/30 00:37:22;;;;;;;65.40;17.00;;;;;;;;;;4978427;28;94010;-68
2021/12/30 00:39:48;;;;;;;57.88;15.30;;;;;;;;;;4991559;28;94195;-69
2021/12/30 00:42:14;;;;;;;61.65;15.82;;;;;;;;;;4991263;28;92580;-69
2021/12/30 00:44:41;;;;;;;65.68;14.98;;;;;;;;;;4990743;28;94281;-69
2021/12/30 00:47:07;;;;;;;61.25;14.75;;;;;;;;;;4985183;28;92524;-69
2021/12/30 00:49:34;;;;;;;73.38;16.08;;;;;;;;;;4990684;28;94527;-69
2021/12/30 00:52:00;;;;;;;74.75;14.25;;;;;;;;;;4990423;28;94589;-67
2021/12/30 00:54:27;;;;;;;68.70;14.38;;;;;;;;;;4990157;28;92509;-68
2021/12/30 00:56:53;;;;;;;59.67;13.75;;;;;;;;;;4989906;28;95440;-68
2021/12/30 00:59:23;;;;;;;69.18;12.75;;;;;;;;;;4984859;28;93493;-68
2021/12/30 01:01:50;;;;;;;73.75;13.80;;;;;;;;;;4982926;28;92566;-68
2021/12/30 01:04:18;;;;;;;57.20;13.35;;;;;;;;;;4993747;28;94150;-69
2021/12/30 01:06:45;;;;;;;70.97;13.65;;;;;;;;;;4991058;28;94452;-68
2021/12/30 01:09:11;;;;;;;49.17;11.23;;;;;;;;;;4991617;28;94035;-68
2021/12/30 01:11:37;;;;;;;59.50;12.13;;;;;;;;;;4989538;28;94114;-68
2021/12/30 01:14:14;;;;;;;59.33;11.45;;;;;;;;;;4992414;28;91817;-69
2021/12/30 01:16:43;;;;;;;65.40;12.15;;;;;;;;;;4990880;28;93424;-69
2021/12/30 01:21:43;;;;;;;61.13;12.10;;;;;;;;;;4993527;28;96087;-68
2021/12/30 01:24:09;;;;;;;50.38;11.35;;;;;;;;;;4985765;28;96332;-68
2021/12/30 01:26:35;;;;;;;63.55;11.90;;;;;;;;;;4973974;28;93313;-69
2021/12/30 01:29:02;;;;;;;59.95;12.15;;;;;;;;;;4991609;28;94076;-69
2021/12/30 01:31:29;;;;;;;58.08;11.57;;;;;;;;;;4990806;28;94408;-68
2021/12/30 01:34:15;;;;;;;62.78;12.18;;;;;;;;;;4984734;28;93859;-68
2021/12/30 01:36:41;;;;;;;68.15;12.85;;;;;;;;;;4999202;28;93925;-69
2021/12/30 01:39:08;;;;;;;60.20;13.00;;;;;;;;;;4990628;28;94972;-68
2021/12/30 01:41:34;;;;;;;70.18;14.27;;;;;;;;;;4990945;28;92510;-68
2021/12/30 01:44:00;;;;;;;70.50;15.07;;;;;;;;;;4975667;28;92680;-68
2021/12/30 01:46:35;;;;;;;70.13;13.77;;;;;;;;;;4988091;28;96699;-68
2021/12/30 01:49:02;;;;;;;66.03;14.57;;;;;;;;;;4996283;28;92435;-67
2021/12/30 01:51:28;;;;;;;71.90;15.50;;;;;;;;;;4993249;28;94241;-68
2021/12/30 01:53:56;;;;;;;65.97;15.65;;;;;;;;;;4993793;28;92556;-68
2021/12/30 01:56:22;;;;;;;59.83;15.80;;;;;;;;;;4993289;28;94377;-68
2021/12/30 01:58:49;;;;;;;63.53;16.30;;;;;;;;;;4994486;28;94211;-68
2021/12/30 02:01:16;;;;;;;52.63;15.55;;;;;;;;;;4986238;28;92984;-68
2021/12/30 02:03:43;;;;;;;56.45;16.52;;;;;;;;;;4975401;28;93050;-68
2021/12/30 02:06:10;;;;;;;59.88;16.80;;;;;;;;;;4987545;28;93014;-68
2021/12/30 02:08:37;;;;;;;79.72;18.15;;;;;;;;;;5005867;28;92442;-68
2021/12/30 02:11:03;;;;;;;80.03;21.25;;;;;;;;;;4996606;28;95665;-68
2021/12/30 02:13:29;;;;;;;80.35;19.70;;;;;;;;;;4992761;28;92466;-68
2021/12/30 02:16:01;;;;;;;81.10;20.92;;;;;;;;;;4979772;28;94547;-69
2021/12/30 02:18:27;;;;;;;65.45;19.42;;;;;;;;;;4973263;28;94132;-68
2021/12/30 02:20:55;;;;;;;61.70;19.52;;;;;;;;;;4987082;28;92594;-68
2021/12/30 02:23:22;;;;;;;77.80;21.42;;;;;;;;;;4992455;28;93976;-68
2021/12/30 02:25:50;;;;;;;80.95;21.95;;;;;;;;;;4982668;28;94442;-68
2021/12/30 02:28:17;;;;;;;72.22;20.58;;;;;;;;;;4974301;28;91751;-68
2021/12/30 02:30:44;;;;;;;70.93;20.52;;;;;;;;;;4985023;28;93784;-68
2021/12/30 02:33:12;;;;;;;70.40;19.65;;;;;;;;;;4992359;28;92635;-68
2021/12/30 02:35:38;;;;;;;58.60;17.20;;;;;;;;;;4990653;28;95318;-68
2021/12/30 02:38:05;;;;;;;90.13;21.70;;;;;;;;;;4993173;28;94195;-69
2021/12/30 02:40:35;;;;;;;66.95;20.30;;;;;;;;;;4992956;28;92441;-70
2021/12/30 02:43:03;;;;;;;81.22;22.17;;;;;;;;;;4992355;28;94179;-69
2021/12/30 02:45:29;;;;;;;70.03;21.73;;;;;;;;;;4992884;28;92506;-69
2021/12/30 02:47:56;;;;;;;69.50;21.40;;;;;;;;;;4976615;28;92575;-69
2021/12/30 02:50:24;;;;;;;82.72;21.65;;;;;;;;;;4990957;28;93894;-69
2021/12/30 02:52:50;;;;;;;75.65;23.67;;;;;;;;;;4997402;28;93281;-68
2021/12/30 02:55:16;;;;;;;77.22;22.70;;;;;;;;;;4992910;28;93190;-68
2021/12/30 02:57:43;;;;;;;62.22;22.33;;;;;;;;;;4992019;28;94513;-68
2021/12/30 03:00:09;;;;;;;81.47;23.17;;;;;;;;;;4991350;28;94882;-68
2021/12/30 03:02:37;;;;;;;69.60;23.55;;;;;;;;;;4993207;28;95522;-68
2021/12/30 03:05:05;;;;;;;63.65;24.45;;;;;;;;;;4992491;28;94094;-68
2021/12/30 03:07:31;;;;;;;71.03;24.40;;;;;;;;;;4993451;28;92468;-69
2021/12/30 03:09:58;;;;;;;58.20;21.30;;;;;;;;;;4992471;28;93086;-69
2021/12/30 03:12:24;;;;;;;63.88;21.63;;;;;;;;;;4994985;28;94134;-69
2021/12/30 03:14:51;;;;;;;54.67;20.88;;;;;;;;;;4979241;28;92481;-69
2021/12/30 03:17:17;;;;;;;49.58;21.25;;;;;;;;;;4977155;28;93431;-68
2021/12/30 03:19:44;;;;;;;52.70;22.00;;;;;;;;;;4991624;28;92524;-69
2021/12/30 03:22:12;;;;;;;45.35;20.25;;;;;;;;;;4992929;28;92989;-70
2021/12/30 03:24:38;;;;;;;56.00;21.23;;;;;;;;;;4990318;28;97720;-69
2021/12/30 03:27:06;;;;;;;44.60;20.50;;;;;;;;;;4995704;28;93225;-69
2021/12/30 03:29:32;;;;;;;43.13;19.83;;;;;;;;;;4995705;28;93251;-69
2021/12/30 03:31:58;;;;;;;46.47;19.35;;;;;;;;;;4984910;28;94091;-67
2021/12/30 03:34:25;;;;;;;52.83;19.90;;;;;;;;;;4976162;28;92781;-68
2021/12/30 03:36:51;;;;;;;45.78;20.55;;;;;;;;;;4998573;28;92449;-69
2021/12/30 03:39:17;;;;;;;45.85;19.55;;;;;;;;;;4996261;28;92539;-69
2021/12/30 03:41:44;;;;;;;44.50;19.52;;;;;;;;;;5001243;28;92775;-68
2021/12/30 03:44:11;;;;;;;37.80;17.48;;;;;;;;;;4999820;28;93533;-69
2021/12/30 03:46:37;;;;;;;33.33;17.77;;;;;;;;;;4999609;28;92485;-69
2021/12/30 03:49:06;;;;;;;37.47;18.30;;;;;;;;;;4997295;28;94870;-69
2021/12/30 03:51:38;;;;;;;43.50;18.00;;;;;;;;;;4993756;28;94543;-68
2021/12/30 03:54:04;;;;;;;37.42;18.02;;;;;;;;;;4998627;28;92665;-68
2021/12/30 03:56:31;;;;;;;29.50;16.58;;;;;;;;;;4995866;28;94437;-68
2021/12/30 03:58:57;;;;;;;33.92;15.93;;;;;;;;;;4994225;28;92523;-68
2021/12/30 04:01:24;;;;;;;30.67;15.98;;;;;;;;;;4978079;28;94023;-67
2021/12/30 04:03:51;;;;;;;30.63;16.38;;;;;;;;;;4973771;28;93275;-68
2021/12/30 04:06:18;;;;;;;23.42;14.80;;;;;;;;;;4991225;28;91731;-67
2021/12/30 04:08:45;;;;;;;26.65;15.90;;;;;;;;;;4991898;28;93290;-69
2021/12/30 04:11:12;;;;;;;25.52;16.02;;;;;;;;;;4991308;28;93528;-69
2021/12/30 04:13:38;;;;;;;30.88;16.73;;;;;;;;;;4989912;28;95469;-68
2021/12/30 04:16:05;;;;;;;30.77;17.20;;;;;;;;;;4982270;28;96611;-69
2021/12/30 04:18:31;;;;;;;32.40;18.20;;;;;;;;;;4975369;28;94326;-68
2021/12/30 04:20:58;;;;;;;21.45;13.98;;;;;;;;;;4978267;28;93888;-69
2021/12/30 04:23:24;;;;;;;40.13;20.95;;;;;;;;;;4991358;28;94489;-68
2021/12/30 04:25:50;;;;;;;35.88;21.15;;;;;;;;;;4989221;28;92509;-69
2021/12/30 04:28:17;;;;;;;32.22;18.58;;;;;;;;;;4990288;28;93049;-69
2021/12/30 04:30:43;;;;;;;38.10;20.90;;;;;;;;;;4992211;28;92494;-68
2021/12/30 04:33:09;;;;;;;48.75;23.13;;;;;;;;;;4990678;28;92554;-69
2021/12/30 04:35:36;;;;;;;38.15;18.63;;;;;;;;;;4985708;28;94053;-69
2021/12/30 04:38:02;;;;;;;34.65;17.98;;;;;;;;;;4979501;28;96565;-69
2021/12/30 04:40:29;;;;;;;33.38;18.17;;;;;;;;;;4994880;28;92469;-69
2021/12/30 04:42:55;;;;;;;27.45;16.25;;;;;;;;;;4979109;28;94969;-67
2021/12/30 04:45:22;;;;;;;28.90;14.52;;;;;;;;;;4990757;28;92538;-68
2021/12/30 04:47:48;;;;;;;23.50;13.57;;;;;;;;;;4992270;28;92431;-68
2021/12/30 04:50:15;;;;;;;19.73;12.52;;;;;;;;;;4987586;28;94349;-68
2021/12/30 04:52:41;;;;;;;14.80;11.10;;;;;;;;;;4972653;28;92493;-68
2021/12/30 04:55:08;;;;;;;18.92;10.73;;;;;;;;;;4981473;28;93926;-68
2021/12/30 04:57:35;;;;;;;14.55;11.27;;;;;;;;;;4990863;28;94267;-68
2021/12/30 05:00:03;;;;;;;15.27;10.32;;;;;;;;;;4992018;28;95401;-68
2021/12/30 05:02:41;;;;;;;18.20;12.13;;;;;;;;;;4992847;28;96115;-68
2021/12/30 05:05:08;;;;;;;20.63;12.52;;;;;;;;;;4992424;28;93019;-68
2021/12/30 05:07:34;;;;;;;21.05;12.00;;;;;;;;;;4991313;28;94099;-69
2021/12/30 05:10:04;;;;;;;22.25;12.10;;;;;;;;;;4991266;28;94176;-69
2021/12/30 05:12:30;;;;;;;18.88;9.32;;;;;;;;;;4991103;28;93774;-69
2021/12/30 05:14:56;;;;;;;9.38;7.32;;;;;;;;;;4991053;28;94387;-69
2021/12/30 05:17:28;;;;;;;8.13;6.40;;;;;;;;;;4990067;28;93944;-69
2021/12/30 05:19:54;;;;;;;6.93;6.15;;;;;;;;;;4988437;28;91849;-69
2021/12/30 05:22:21;;;;;;;12.07;6.47;;;;;;;;;;4973418;28;92823;-67
2021/12/30 05:24:47;;;;;;;7.78;6.18;;;;;;;;;;5001837;28;94243;-68
2021/12/30 05:27:13;;;;;;;6.93;6.25;;;;;;;;;;4994230;28;94857;-68
2021/12/30 05:29:40;;;;;;;6.72;6.13;;;;;;;;;;4994698;28;92486;-68
2021/12/30 05:32:06;;;;;;;8.13;5.45;;;;;;;;;;4994177;28;92616;-69
2021/12/30 05:34:33;;;;;;;9.43;6.30;;;;;;;;;;4994314;28;93994;-68
2021/12/30 05:36:59;;;;;;;10.13;7.88;;;;;;;;;;4994795;28;94128;-68
2021/12/30 05:39:25;;;;;;;23.73;14.07;;;;;;;;;;5005565;28;92574;-68
2021/12/30 05:41:52;;;;;;;35.55;17.48;;;;;;;;;;5001305;28;93963;-69
2021/12/30 05:44:18;;;;;;;48.00;21.65;;;;;;;;;;4994836;28;93829;-69
2021/12/30 05:46:44;;;;;;;55.00;24.23;;;;;;;;;;5000042;28;92519;-69
2021/12/30 05:49:11;;;;;;;56.05;25.00;;;;;;;;;;4994499;28;93311;-69
2021/12/30 05:51:37;;;;;;;51.42;22.33;;;;;;;;;;4982504;28;94978;-69
2021/12/30 05:54:04;;;;;;;57.97;25.65;;;;;;;;;;4973973;28;96570;-69
2021/12/30 05:56:30;;;;;;;60.15;25.05;;;;;;;;;;4992260;28;93628;-69
2021/12/30 05:58:56;;;;;;;64.28;27.08;;;;;;;;;;5014824;28;93083;-69
2021/12/30 06:01:23;;;;;;;65.38;26.70;;;;;;;;;;4999059;28;93879;-69
2021/12/30 06:03:49;;;;;;;46.88;21.27;;;;;;;;;;4991115;28;93055;-69
2021/12/30 06:06:16;;;;;;;51.25;22.63;;;;;;;;;;4996815;28;92491;-69
2021/12/30 06:08:42;;;;;;;42.05;19.88;;;;;;;;;;4986134;28;93429;-69
2021/12/30 06:11:08;;;;;;;45.78;21.95;;;;;;;;;;4974527;28;92481;-69
2021/12/30 06:13:35;;;;;;;69.68;24.77;;;;;;;;;;4991258;28;94021;-69
2021/12/30 06:16:01;;;;;;;53.78;21.10;;;;;;;;;;4991768;28;95971;-69
2021/12/30 06:18:28;;;;;;;62.80;23.70;;;;;;;;;;4993494;28;92480;-69
2021/12/30 06:20:54;;;;;;;37.65;17.38;;;;;;;;;;4994221;28;93157;-69
2021/12/30 06:23:20;;;;;;;34.53;15.82;;;;;;;;;;4993677;28;94131;-69
2021/12/30 06:25:47;;;;;;;25.77;12.35;;;;;;;;;;4994003;28;93221;-69
2021/12/30 06:28:13;;;;;;;30.88;13.50;;;;;;;;;;5012540;28;93960;-69
2021/12/30 06:30:39;;;;;;;23.23;12.68;;;;;;;;;;4998442;28;94249;-69
2021/12/30 06:33:06;;;;;;;29.90;12.70;;;;;;;;;;4993560;28;93224;-69
2021/12/30 06:35:34;;;;;;;25.90;12.90;;;;;;;;;;4986268;28;94348;-69
2021/12/30 06:38:01;;;;;;;31.90;13.23;;;;;;;;;;4992696;28;92608;-69
2021/12/30 06:40:28;;;;;;;25.05;12.70;;;;;;;;;;4991372;28;94925;-69
2021/12/30 06:42:54;;;;;;;22.45;11.75;;;;;;;;;;5008814;28;93466;-68
2021/12/30 06:45:20;;;;;;;18.60;11.18;;;;;;;;;;5002970;28;92560;-68
2021/12/30 06:47:47;;;;;;;21.92;13.05;;;;;;;;;;4993721;28;94083;-68
2021/12/30 06:50:15;;;;;;;24.23;11.75;;;;;;;;;;4994832;28;93715;-69
2021/12/30 06:52:42;;;;;;;19.08;11.98;;;;;;;;;;4993284;28;94399;-69
2021/12/30 06:55:09;;;;;;;23.40;11.90;;;;;;;;;;4973449;28;93371;-68
2021/12/30 06:57:35;;;;;;;20.33;11.85;;;;;;;;;;4989813;28;91744;-69
2021/12/30 07:00:06;;;;;;;25.58;13.10;;;;;;;;;;4974254;28;93247;-68
2021/12/30 07:02:33;;;;;;;19.85;12.10;;;;;;;;;;4980637;28;93584;-68
2021/12/30 07:05:00;;;;;;;16.20;11.55;;;;;;;;;;4990815;28;95212;-69
2021/12/30 07:07:26;;;;;;;17.20;11.10;;;;;;;;;;4993979;28;96507;-70
2021/12/30 07:09:52;;;;;;;12.25;8.75;;;;;;;;;;4991799;28;94686;-69
2021/12/30 07:12:19;;;;;;;10.32;8.75;;;;;;;;;;4998078;28;92729;-69
2021/12/30 07:14:45;;;;;;;11.02;8.10;;;;;;;;;;4994107;28;93457;-69
2021/12/30 07:17:11;;;;;;;15.48;7.80;;;;;;;;;;4990763;28;94453;-68
2021/12/30 07:19:38;;;;;;;12.95;6.93;;;;;;;;;;4973895;28;93966;-69
2021/12/30 07:22:04;;;;;;;14.35;7.95;;;;;;;;;;4975011;28;92623;-69
2021/12/30 07:24:50;;;;;;;11.48;7.60;;;;;;;;;;4996272;28;93385;-69
2021/12/30 07:27:17;;;;;;;10.85;8.23;;;;;;;;;;5004562;28;93135;-69
2021/12/30 07:29:43;;;;;;;11.95;7.90;;;;;;;;;;4972951;28;95535;-69
2021/12/30 07:32:10;;;;;;;11.40;8.73;;;;;;;;;;4974102;28;92531;-69
2021/12/30 07:34:36;;;;;;;14.07;8.27;;;;;;;;;;4996466;28;94577;-69
2021/12/30 07:37:02;;;;;;;12.85;7.82;;;;;;;;;;4993533;28;92440;-69
2021/12/30 07:39:28;;;;;;;11.70;7.82;;;;;;;;;;4992283;28;95930;-69
2021/12/30 07:41:55;;;;;;;14.48;8.32;;;;;;;;;;4994219;28;93259;-68
2021/12/30 07:44:23;;;;;;;5.35;4.82;;;;;;;;;;4994222;28;92591;-69
2021/12/30 07:47:09;;;;;;;9.55;6.82;;;;;;;;;;5004910;28;93109;-69
2021/12/30 07:49:36;;;;;;;9.30;6.57;;;;;;;;;;5013086;28;94196;-68
2021/12/30 07:52:03;;;;;;;10.82;7.25;;;;;;;;;;5012882;28;92438;-68
2021/12/30 07:54:29;;;;;;;13.60;7.53;;;;;;;;;;5011556;28;94832;-68
2021/12/30 07:56:55;;;;;;;13.05;7.25;;;;;;;;;;5015183;28;93497;-68
2021/12/30 07:59:22;;;;;;;15.30;6.93;;;;;;;;;;5012164;28;94484;-68
2021/12/30 08:01:49;;;;;;;14.32;8.32;;;;;;;;;;4997770;28;93455;-68
2021/12/30 08:04:18;;;;;;;13.73;8.35;;;;;;;;;;4995417;28;93666;-68
2021/12/30 08:06:44;;;;;;;16.77;9.43;;;;;;;;;;5011414;28;93994;-68
2021/12/30 08:09:11;;;;;;;16.38;9.88;;;;;;;;;;5012836;28;94162;-68
2021/12/30 08:11:37;;;;;;;18.08;9.18;;;;;;;;;;5012640;28;91816;-68
2021/12/30 08:14:03;;;;;;;20.65;9.07;;;;;;;;;;5012228;28;93083;-69
2021/12/30 08:16:30;;;;;;;15.82;7.53;;;;;;;;;;5010868;28;95070;-69
2021/12/30 08:18:57;;;;;;;13.07;7.80;;;;;;;;;;4971733;28;94984;-69
2021/12/30 08:21:24;;;;;;;23.55;10.27;;;;;;;;;;4990840;28;94087;-68
2021/12/30 08:23:51;;;;;;;20.77;10.60;;;;;;;;;;4986200;28;92554;-68
2021/12/30 08:26:18;;;;;;;19.70;8.18;;;;;;;;;;4991632;28;93261;-68
2021/12/30 08:28:45;;;;;;;22.77;9.70;;;;;;;;;;4988910;28;93576;-68
2021/12/30 08:31:12;;;;;;;20.58;9.38;;;;;;;;;;4977982;28;92724;-69
2021/12/30 08:33:38;;;;;;;15.43;7.20;;;;;;;;;;4973904;28;93879;-69
2021/12/30 08:36:05;;;;;;;19.55;7.53;;;;;;;;;;4972593;28;93932;-69
2021/12/30 08:38:31;;;;;;;21.70;7.80;;;;;;;;;;4986491;28;92741;-68
2021/12/30 08:40:58;;;;;;;20.80;7.47;;;;;;;;;;4980028;28;93730;-68
2021/12/30 08:43:26;;;;;;;23.60;7.93;;;;;;;;;;4972143;28;95560;-69
2021/12/30 08:45:52;;;;;;;29.95;7.50;;;;;;;;;;4975670;28;96497;-68
2021/12/30 08:48:21;;;;;;;28.17;7.45;;;;;;;;;;4982950;28;93609;-69
2021/12/30 08:50:48;;;;;;;25.33;7.60;;;;;;;;;;4991380;28;92398;-68
2021/12/30 08:53:14;;;;;;;29.48;7.90;;;;;;;;;;4976463;28;93344;-68
2021/12/30 08:55:41;;;;;;;23.25;6.57;;;;;;;;;;4974211;28;93426;-68
2021/12/30 08:58:07;;;;;;;35.40;7.45;;;;;;;;;;4993892;28;92534;-69
2021/12/30 09:00:36;;;;;;;32.22;7.47;;;;;;;;;;4990855;28;93985;-68
2021/12/30 09:03:04;;;;;;;36.60;8.80;;;;;;;;;;4988982;28;92625;-68
2021/12/30 09:05:32;;;;;;;30.13;7.38;;;;;;;;;;4986005;28;93111;-69
2021/12/30 09:07:58;;;;;;;31.88;7.43;;;;;;;;;;4978519;28;95798;-69
2021/12/30 09:10:33;;;;;;;34.38;7.50;;;;;;;;;;4977945;28;92558;-69
2021/12/30 09:13:00;;;;;;;27.85;7.00;;;;;;;;;;4996146;28;94622;-69
2021/12/30 09:15:27;;;;;;;33.83;6.75;;;;;;;;;;4990964;28;94617;-69
2021/12/30 09:17:54;;;;;;;23.45;6.40;;;;;;;;;;4977213;28;92539;-68
2021/12/30 09:20:21;;;;;;;27.92;6.85;;;;;;;;;;4975293;28;94515;-68
2021/12/30 09:22:48;;;;;;;23.73;6.05;;;;;;;;;;4996911;28;93717;-68
2021/12/30 09:25:17;;;;;;;30.92;6.53;;;;;;;;;;4992735;28;93991;-68
2021/12/30 09:27:43;;;;;;;29.50;6.90;;;;;;;;;;4995362;28;94579;-69
2021/12/30 09:30:11;;;;;;;22.92;6.35;;;;;;;;;;4995503;28;92474;-69
2021/12/30 09:32:38;;;;;;;22.50;5.90;;;;;;;;;;4991730;28;94845;-69
2021/12/30 09:35:05;;;;;;;31.42;7.47;;;;;;;;;;4995039;28;93429;-69
2021/12/30 09:37:32;;;;;;;33.25;5.55;;;;;;;;;;4994733;28;92549;-68
2021/12/30 09:39:59;;;;;;;35.28;6.53;;;;;;;;;;4990827;28;94003;-69
2021/12/30 09:42:26;;;;;;;27.13;6.88;;;;;;;;;;5001023;28;94706;-69
2021/12/30 09:44:53;;;;;;;34.03;7.28;;;;;;;;;;4977870;28;92764;-68
2021/12/30 09:47:19;;;;;;;27.00;5.80;;;;;;;;;;4986193;28;94502;-69
2021/12/30 09:49:47;;;;;;;35.67;7.80;;;;;;;;;;4993410;28;91731;-69
2021/12/30 09:52:14;;;;;;;28.45;7.13;;;;;;;;;;4977355;28;93739;-68
2021/12/30 09:54:40;;;;;;;23.27;5.53;;;;;;;;;;4975531;28;94838;-69
2021/12/30 09:57:06;;;;;;;26.17;5.63;;;;;;;;;;4973691;28;95480;-69
2021/12/30 09:59:34;;;;;;;21.30;5.68;;;;;;;;;;4983127;28;95624;-70
2021/12/30 10:02:03;;;;;;;26.48;7.05;;;;;;;;;;4977844;28;94266;-69
2021/12/30 10:04:31;;;;;;;26.15;5.50;;;;;;;;;;4987808;28;92467;-69
2021/12/30 10:06:58;;;;;;;26.63;5.65;;;;;;;;;;4992753;28;94617;-69
2021/12/30 10:09:38;;;;;;;27.65;5.72;;;;;;;;;;4975258;28;92587;-69
2021/12/30 10:12:05;;;;;;;21.02;5.28;;;;;;;;;;4978183;28;93957;-69
2021/12/30 10:14:33;;;;;;;21.70;5.32;;;;;;;;;;4982772;28;94064;-69
2021/12/30 10:17:12;;;;;;;25.10;6.07;;;;;;;;;;4991066;28;92925;-69
2021/12/30 10:19:39;;;;;;;13.18;4.85;;;;;;;;;;4992375;28;94058;-68
2021/12/30 10:22:13;;;;;;;23.10;5.28;;;;;;;;;;4991690;28;94951;-69
2021/12/30 10:24:40;;;;;;;30.10;4.93;;;;;;;;;;4995065;28;92860;-68
2021/12/30 10:27:07;;;;;;;21.92;5.22;;;;;;;;;;4996971;28;94293;-68
2021/12/30 10:29:43;;;;;;;20.55;5.95;;;;;;;;;;4994284;28;92961;-68
2021/12/30 10:32:17;;;;;;;21.75;5.60;;;;;;;;;;4975310;28;94243;-68
2021/12/30 10:35:02;;;;;;;22.17;5.93;;;;;;;;;;4974469;28;93463;-68
2021/12/30 10:37:28;;;;;;;27.55;6.05;;;;;;;;;;4974085;28;92486;-68
2021/12/30 10:39:55;;;;;;;27.15;5.65;;;;;;;;;;4974951;28;94756;-68
2021/12/30 10:42:21;;;;;;;18.35;4.55;;;;;;;;;;4972932;28;94771;-69
2021/12/30 10:45:00;;;;;;;27.73;6.80;;;;;;;;;;4989416;28;93308;-68
2021/12/30 10:47:28;;;;;;;27.45;6.03;;;;;;;;;;4984266;28;94900;-69
2021/12/30 10:50:03;;;;;;;22.48;5.38;;;;;;;;;;4996973;28;94613;-69
2021/12/30 10:52:29;;;;;;;26.38;5.65;;;;;;;;;;4993835;28;93652;-69
2021/12/30 10:54:57;;;;;;;26.30;6.25;;;;;;;;;;4993376;28;94559;-69
2021/12/30 10:57:27;;;;;;;23.08;5.63;;;;;;;;;;4993896;28;93120;-69
2021/12/30 10:59:54;;;;;;;24.90;5.60;;;;;;;;;;4994977;28;93704;-69
2021/12/30 11:02:21;;;;;;;24.38;5.32;;;;;;;;;;5012814;28;93953;-69
2021/12/30 11:04:50;;;;;;;26.58;6.20;;;;;;;;;;5008704;28;91714;-69
2021/12/30 11:07:18;;;;;;;15.85;4.70;;;;;;;;;;4993977;28;93909;-70
2021/12/30 11:09:46;;;;;;;24.80;6.18;;;;;;;;;;4993017;28;94019;-69
2021/12/30 11:12:12;;;;;;;16.30;5.30;;;;;;;;;;4995703;28;94874;-70
2021/12/30 11:14:38;;;;;;;25.48;6.05;;;;;;;;;;4997662;28;93753;-69
2021/12/30 11:17:10;;;;;;;24.00;5.65;;;;;;;;;;5012560;28;92881;-69
2021/12/30 11:19:41;;;;;;;20.53;6.50;;;;;;;;;;5013648;28;93115;-70
2021/12/30 11:22:10;;;;;;;22.45;5.55;;;;;;;;;;5013078;28;93279;-69
2021/12/30 11:24:37;;;;;;;24.55;5.80;;;;;;;;;;5008844;28;92505;-70
2021/12/30 11:27:05;;;;;;;25.75;6.72;;;;;;;;;;4994469;28;93160;-70
2021/12/30 11:29:34;;;;;;;22.30;5.82;;;;;;;;;;4993658;28;93583;-69
2021/12/30 11:32:00;;;;;;;19.40;5.47;;;;;;;;;;4993038;28;92537;-70
2021/12/30 11:34:27;;;;;;;20.65;5.63;;;;;;;;;;4997314;28;93930;-70
2021/12/30 11:36:54;;;;;;;24.83;5.68;;;;;;;;;;5011905;28;94903;-69
2021/12/30 11:39:21;;;;;;;24.73;5.75;;;;;;;;;;5012921;28;96053;-70
2021/12/30 11:42:08;;;;;;;20.10;6.03;;;;;;;;;;5013471;28;94704;-70
2021/12/30 11:44:34;;;;;;;20.02;6.00;;;;;;;;;;5012365;28;92406;-69
2021/12/30 11:47:01;;;;;;;27.83;7.13;;;;;;;;;;5013314;28;93798;-68
2021/12/30 11:49:46;;;;;;;21.55;5.72;;;;;;;;;;5010940;28;93575;-69
2021/12/30 11:52:12;;;;;;;19.08;5.35;;;;;;;;;;5012594;28;92547;-70
2021/12/30 11:54:40;;;;;;;23.88;6.47;;;;;;;;;;5013138;28;93744;-68
2021/12/30 11:57:25;;;;;;;23.42;7.13;;;;;;;;;;5015744;28;93623;-68
2021/12/30 11:59:56;;;;;;;17.60;5.88;;;;;;;;;;5011145;28;92833;-69
2021/12/30 12:02:26;;;;;;;17.77;5.25;;;;;;;;;;5010792;28;96646;-69
2021/12/30 12:04:53;;;;;;;20.70;5.93;;;;;;;;;;5012956;28;92855;-69
2021/12/30 12:07:19;;;;;;;13.93;5.47;;;;;;;;;;5012147;28;93762;-69
2021/12/30 12:09:46;;;;;;;22.42;5.20;;;;;;;;;;5012751;28;94371;-69
2021/12/30 12:12:32;;;;;;;24.08;6.05;;;;;;;;;;5012411;28;92503;-69
2021/12/30 12:15:00;;;;;;;16.65;5.40;;;;;;;;;;5009358;28;94024;-69
2021/12/30 12:17:30;;;;;;;19.50;5.47;;;;;;;;;;4995553;28;93750;-70
2021/12/30 12:19:56;;;;;;;24.80;5.63;;;;;;;;;;5006173;28;91708;-68
2021/12/30 12:22:24;;;;;;;14.93;4.93;;;;;;;;;;4994711;28;93579;-70
2021/12/30 12:25:09;;;;;;;24.40;6.20;;;;;;;;;;4993050;28;92521;-69
2021/12/30 12:27:40;;;;;;;24.13;5.82;;;;;;;;;;4989960;28;95108;-69
2021/12/30 12:30:19;;;;;;;19.30;5.78;;;;;;;;;;5005340;28;94364;-69
2021/12/30 12:32:46;;;;;;;14.38;4.63;;;;;;;;;;5011370;28;92582;-70
2021/12/30 12:35:18;;;;;;;22.20;5.10;;;;;;;;;;5012106;28;94001;-68
2021/12/30 12:37:47;;;;;;;17.67;5.70;;;;;;;;;;5013133;28;95874;-69
2021/12/30 12:40:29;;;;;;;22.50;5.30;;;;;;;;;;5015295;28;93534;-69
2021/12/30 12:42:58;;;;;;;17.10;5.00;;;;;;;;;;5012199;28;94219;-69
2021/12/30 12:45:28;;;;;;;17.23;5.45;;;;;;;;;;5011730;28;91880;-69
2021/12/30 12:48:14;;;;;;;12.00;4.20;;;;;;;;;;5011858;28;93222;-69
2021/12/30 12:50:41;;;;;;;14.45;4.22;;;;;;;;;;5011972;28;92739;-69
2021/12/30 12:53:36;;;;;;;16.13;5.00;;;;;;;;;;5010654;28;94863;-69
2021/12/30 12:56:07;;;;;;;11.02;4.30;;;;;;;;;;5009143;28;95413;-69
2021/12/30 12:58:35;;;;;;;11.18;3.80;;;;;;;;;;5011917;28;93270;-69
2021/12/30 13:01:02;;;;;;;13.13;4.35;;;;;;;;;;5012212;28;92543;-69
2021/12/30 13:03:29;;;;;;;11.27;3.88;;;;;;;;;;5014272;28;94218;-69
2021/12/30 13:06:00;;;;;;;11.68;4.40;;;;;;;;;;4998395;28;93369;-69
2021/12/30 13:08:30;;;;;;;12.20;3.95;;;;;;;;;;4991815;28;93042;-68
2021/12/30 13:10:57;;;;;;;13.23;4.07;;;;;;;;;;4992772;28;92823;-68
2021/12/30 13:13:27;;;;;;;19.70;4.70;;;;;;;;;;4992092;28;92533;-70
2021/12/30 13:15:54;;;;;;;15.05;4.30;;;;;;;;;;4991754;28;95013;-69
2021/12/30 13:18:21;;;;;;;22.55;5.00;;;;;;;;;;4989440;28;97842;-69
2021/12/30 13:20:48;;;;;;;12.98;3.95;;;;;;;;;;5007892;28;92486;-69
2021/12/30 13:23:24;;;;;;;18.83;5.13;;;;;;;;;;5011135;28;93459;-69
2021/12/30 13:25:58;;;;;;;19.83;5.63;;;;;;;;;;5014548;28;93442;-69
2021/12/30 13:28:25;;;;;;;12.15;3.75;;;;;;;;;;4999930;28;93947;-69
2021/12/30 13:30:51;;;;;;;11.75;4.47;;;;;;;;;;4991308;28;94204;-69
2021/12/30 13:33:18;;;;;;;13.60;4.57;;;;;;;;;;4991876;28;92469;-70
2021/12/30 13:35:44;;;;;;;17.45;4.07;;;;;;;;;;5009682;28;92946;-69
2021/12/30 13:38:11;;;;;;;11.85;4.43;;;;;;;;;;5011036;28;94273;-69
2021/12/30 13:40:40;;;;;;;11.60;3.38;;;;;;;;;;5011630;28;92478;-70
2021/12/30 13:43:17;;;;;;;17.30;4.18;;;;;;;;;;5010827;28;94976;-69
2021/12/30 13:45:47;;;;;;;14.68;4.25;;;;;;;;;;5014832;28;94654;-69
2021/12/30 13:48:18;;;;;;;19.73;4.25;;;;;;;;;;5018009;28;92483;-70
2021/12/30 13:50:51;;;;;;;18.98;4.15;;;;;;;;;;5013533;28;95972;-69
2021/12/30 13:53:17;;;;;;;9.57;3.35;;;;;;;;;;5014484;28;92493;-69
2021/12/30 13:55:48;;;;;;;14.10;3.92;;;;;;;;;;5015449;28;94382;-68
2021/12/30 13:58:16;;;;;;;15.27;3.35;;;;;;;;;;5014109;28;93289;-69
2021/12/30 14:00:44;;;;;;;13.38;3.95;;;;;;;;;;5015588;28;91735;-69
2021/12/30 14:03:13;;;;;;;11.52;3.60;;;;;;;;;;5014782;28;93999;-69
2021/12/30 14:05:42;;;;;;;19.15;3.90;;;;;;;;;;4974186;28;94338;-69
2021/12/30 14:08:09;;;;;;;12.60;3.47;;;;;;;;;;4973208;28;94901;-69
2021/12/30 14:10:55;;;;;;;10.30;3.50;;;;;;;;;;4977230;28;95502;-70
2021/12/30 14:13:42;;;;;;;15.55;3.67;;;;;;;;;;4973712;28;92586;-69
2021/12/30 14:16:09;;;;;;;19.90;4.80;;;;;;;;;;4974867;28;94423;-69
2021/12/30 14:18:37;;;;;;;19.60;4.28;;;;;;;;;;4979987;28;93328;-69
2021/12/30 14:21:04;;;;;;;21.27;4.85;;;;;;;;;;4994206;28;92552;-70
2021/12/30 14:23:32;;;;;;;13.10;4.13;;;;;;;;;;4988401;28;94325;-69
2021/12/30 14:26:09;;;;;;;18.13;4.35;;;;;;;;;;4994272;28;93911;-69
2021/12/30 14:28:44;;;;;;;15.45;4.05;;;;;;;;;;4994124;28;92683;-69
2021/12/30 14:31:16;;;;;;;8.43;3.42;;;;;;;;;;4997827;28;92526;-69